createdAt,value
2023-01-29T00:00:29.417Z,0.80
2023-01-29T00:03:16.397Z,0.80
2023-01-29T00:06:06.646Z,0.80
2023-01-29T00:08:52.680Z,0.90
2023-01-29T00:11:38.600Z,0.80
2023-01-29T00:14:27.242Z,0.80
2023-01-29T00:17:15.151Z,0.80
2023-01-29T00:20:03.360Z,0.70
2023-01-29T00:22:48.770Z,0.80
2023-01-29T00:25:36.206Z,0.80
2023-01-29T00:28:21.478Z,0.90
2023-01-29T00:31:15.087Z,0.90
2023-01-29T00:34:01.467Z,0.80
2023-01-29T00:36:49.078Z,0.80
2023-01-29T00:39:47.351Z,0.80
2023-01-29T00:42:54.045Z,0.90
2023-01-29T00:45:42.190Z,0.80
2023-01-29T00:48:27.729Z,0.90
2023-01-29T00:51:15.614Z,1.00
2023-01-29T00:54:06.763Z,1.00
2023-01-29T00:56:54.650Z,0.90
2023-01-29T00:59:42.024Z,0.90
2023-01-29T01:02:46.355Z,1.00
2023-01-29T01:05:32.463Z,1.10
2023-01-29T01:08:36.934Z,1.10
2023-01-29T01:11:22.339Z,1.10
2023-01-29T01:14:08.485Z,1.10
2023-01-29T01:16:53.809Z,1.10
2023-01-29T01:19:39.076Z,1.00
2023-01-29T01:22:26.460Z,1.10
2023-01-29T01:25:12.423Z,1.10
2023-01-29T01:28:03.503Z,1.10
2023-01-29T01:30:49.414Z,1.10
2023-01-29T01:33:38.486Z,1.00
2023-01-29T01:36:28.972Z,1.10
2023-01-29T01:39:14.589Z,1.10
2023-01-29T01:42:00.748Z,1.00
2023-01-29T01:45:04.265Z,1.10
2023-01-29T01:47:56.743Z,1.10
2023-01-29T01:50:56.710Z,1.10
2023-01-29T01:53:48.402Z,1.10
2023-01-29T01:56:40.943Z,1.00
2023-01-29T01:59:27.725Z,1.10
2023-01-29T02:02:32.878Z,1.10
2023-01-29T02:05:37.042Z,1.30
2023-01-29T02:09:08.124Z,1.30
2023-01-29T02:11:55.776Z,1.20
2023-01-29T02:14:43.702Z,1.10
2023-01-29T02:17:31.903Z,1.10
2023-01-29T02:20:25.958Z,1.20
2023-01-29T02:23:37.898Z,1.20
2023-01-29T02:26:32.180Z,1.10
2023-01-29T02:29:50.539Z,1.10
2023-01-29T02:32:58.833Z,1.20
2023-01-29T02:35:53.279Z,1.20
2023-01-29T02:39:00.822Z,1.10
2023-01-29T02:42:11.693Z,1.20
2023-01-29T02:45:18.192Z,1.20
2023-01-29T02:48:04.302Z,1.20
2023-01-29T02:51:01.431Z,1.10
2023-01-29T02:54:13.049Z,1.20
2023-01-29T02:57:03.641Z,1.20
2023-01-29T02:59:51.177Z,1.20
2023-01-29T03:02:46.451Z,1.20
2023-01-29T03:05:33.211Z,1.20
2023-01-29T03:08:29.532Z,1.20
2023-01-29T03:11:16.425Z,1.10
2023-01-29T03:14:09.087Z,1.20
2023-01-29T03:16:54.889Z,1.20
2023-01-29T03:19:49.345Z,1.20
2023-01-29T03:22:36.940Z,1.20
2023-01-29T03:25:43.115Z,1.30
2023-01-29T03:28:48.675Z,1.40
2023-01-29T03:31:52.966Z,1.30
2023-01-29T03:34:51.988Z,1.40
2023-01-29T03:37:48.601Z,1.40
2023-01-29T03:40:55.084Z,1.30
2023-01-29T03:43:53.025Z,1.30
2023-01-29T03:46:45.292Z,1.40
2023-01-29T03:49:58.460Z,1.40
2023-01-29T03:52:53.386Z,1.30
2023-01-29T03:55:45.314Z,1.30
2023-01-29T03:58:50.961Z,1.30
2023-01-29T04:01:50.907Z,1.30
2023-01-29T04:04:39.654Z,1.30
2023-01-29T04:07:26.981Z,1.30
2023-01-29T04:10:19.836Z,1.30
2023-01-29T04:13:14.432Z,1.30
2023-01-29T04:16:01.335Z,1.30
2023-01-29T04:18:48.469Z,1.40
2023-01-29T04:21:38.158Z,1.40
2023-01-29T04:24:23.846Z,1.30
2023-01-29T04:27:41.275Z,1.30
2023-01-29T04:30:40.778Z,1.20
2023-01-29T04:33:44.172Z,1.30
2023-01-29T04:37:04.111Z,1.30
2023-01-29T04:40:00.630Z,1.30
2023-01-29T04:42:56.991Z,1.20
2023-01-29T04:46:09.592Z,1.20
2023-01-29T04:49:34.566Z,1.30
2023-01-29T04:52:49.672Z,1.20
2023-01-29T04:55:56.934Z,1.30
2023-01-29T04:58:47.462Z,1.30
2023-01-29T05:01:35.477Z,1.30
2023-01-29T05:04:25.619Z,1.20
2023-01-29T05:07:14.091Z,1.30
2023-01-29T05:09:59.967Z,1.40
2023-01-29T05:12:50.080Z,1.30
2023-01-29T05:15:42.132Z,1.40
2023-01-29T05:18:29.688Z,1.30
2023-01-29T05:21:15.165Z,1.30
2023-01-29T05:24:09.004Z,1.30
2023-01-29T05:27:13.642Z,1.30
2023-01-29T05:29:59.010Z,1.20
2023-01-29T05:32:44.465Z,1.10
2023-01-29T05:35:30.604Z,1.10
2023-01-29T05:38:18.172Z,1.20
2023-01-29T05:41:04.485Z,1.30
2023-01-29T05:43:50.283Z,1.20
2023-01-29T05:46:38.883Z,1.20
2023-01-29T05:49:24.569Z,1.30
2023-01-29T05:52:10.156Z,1.40
2023-01-29T05:54:55.547Z,1.40
2023-01-29T05:57:43.422Z,1.30
2023-01-29T06:00:30.895Z,1.30
2023-01-29T06:03:16.361Z,1.30
2023-01-29T06:06:02.621Z,1.40
2023-01-29T06:08:50.494Z,1.40
2023-01-29T06:11:37.910Z,1.30
2023-01-29T06:14:25.794Z,1.30
2023-01-29T06:17:11.370Z,1.40
2023-01-29T06:19:59.079Z,1.50
2023-01-29T06:22:46.393Z,1.50
2023-01-29T06:25:32.076Z,1.40
2023-01-29T06:28:17.401Z,1.40
2023-01-29T06:31:22.052Z,1.30
2023-01-29T06:34:11.196Z,1.30
2023-01-29T06:36:56.868Z,1.40
2023-01-29T06:39:42.173Z,1.50
2023-01-29T06:42:28.154Z,1.50
2023-01-29T06:45:14.470Z,1.50
2023-01-29T06:48:01.867Z,1.60
2023-01-29T06:50:55.013Z,1.40
2023-01-29T06:53:43.366Z,1.40
2023-01-29T06:56:30.360Z,1.40
2023-01-29T06:59:15.888Z,1.40
2023-01-29T07:02:01.482Z,1.40
2023-01-29T07:04:49.263Z,1.40
2023-01-29T07:07:36.819Z,1.50
2023-01-29T07:10:21.955Z,1.50
2023-01-29T07:13:07.430Z,1.50
2023-01-29T07:16:00.909Z,1.50
2023-01-29T07:18:46.580Z,1.50
2023-01-29T07:21:31.913Z,1.50
2023-01-29T07:24:17.250Z,1.50
2023-01-29T07:27:02.794Z,1.40
2023-01-29T07:29:47.950Z,1.40
2023-01-29T07:32:33.214Z,1.40
2023-01-29T07:35:19.101Z,1.50
2023-01-29T07:38:04.328Z,1.50
2023-01-29T07:40:54.094Z,1.60
2023-01-29T07:43:39.548Z,1.70
2023-01-29T07:46:27.141Z,1.70
2023-01-29T07:49:15.156Z,1.80
2023-01-29T07:52:00.455Z,1.80
2023-01-29T07:54:48.559Z,1.70
2023-01-29T07:57:33.834Z,1.80
2023-01-29T08:00:20.105Z,1.80
2023-01-29T08:03:09.668Z,1.80
2023-01-29T08:05:57.537Z,1.80
2023-01-29T08:08:43.549Z,1.90
2023-01-29T08:11:31.811Z,1.90
2023-01-29T08:14:17.074Z,1.80
2023-01-29T08:17:02.742Z,1.90
2023-01-29T08:19:48.334Z,1.90
2023-01-29T08:22:33.810Z,1.90
2023-01-29T08:25:21.370Z,1.90
2023-01-29T08:28:07.200Z,1.90
2023-01-29T08:30:52.614Z,1.90
2023-01-29T08:33:40.365Z,1.80
2023-01-29T08:36:26.585Z,1.70
2023-01-29T08:39:12.056Z,1.80
2023-01-29T08:41:57.809Z,1.80
2023-01-29T08:44:45.487Z,1.90
2023-01-29T08:47:30.769Z,1.90
2023-01-29T08:50:18.293Z,2.10
2023-01-29T08:53:08.581Z,2.20
2023-01-29T08:55:54.552Z,2.10
2023-01-29T08:58:39.805Z,2.10
2023-01-29T09:01:25.500Z,2.20
2023-01-29T09:04:10.689Z,2.30
2023-01-29T09:06:56.499Z,2.30
2023-01-29T09:09:41.733Z,2.30
2023-01-29T09:12:27.479Z,2.40
2023-01-29T09:15:13.024Z,2.30
2023-01-29T09:17:58.734Z,2.40
2023-01-29T09:20:46.121Z,2.50
2023-01-29T09:23:31.363Z,2.30
2023-01-29T09:26:19.009Z,2.50
2023-01-29T09:29:04.899Z,2.60
2023-01-29T09:31:50.719Z,2.60
2023-01-29T09:34:36.449Z,2.80
2023-01-29T09:37:23.447Z,2.80
2023-01-29T09:40:38.097Z,2.80
2023-01-29T09:43:40.784Z,2.90
2023-01-29T09:46:45.272Z,2.90
2023-01-29T09:49:37.822Z,3.10
2023-01-29T09:52:27.902Z,3.20
2023-01-29T09:55:26.246Z,3.10
2023-01-29T09:58:24.791Z,3.30
2023-01-29T10:01:34.953Z,3.30
2023-01-29T10:04:35.170Z,3.30
2023-01-29T10:08:01.297Z,3.30
2023-01-29T10:11:01.111Z,3.20
2023-01-29T10:14:45.195Z,3.40
2023-01-29T10:17:41.469Z,3.30
2023-01-29T10:20:46.480Z,3.50
2023-01-29T10:23:38.387Z,3.60
2023-01-29T10:26:27.162Z,3.80
2023-01-29T10:29:18.641Z,4.00
2023-01-29T10:32:05.994Z,4.00
2023-01-29T10:34:57.472Z,3.90
2023-01-29T10:37:43.869Z,4.20
2023-01-29T10:41:00.235Z,4.50
2023-01-29T10:43:54.431Z,4.20
2023-01-29T10:46:51.003Z,4.20
2023-01-29T10:49:44.263Z,4.20
2023-01-29T10:52:38.693Z,4.50
2023-01-29T10:55:51.420Z,4.60
2023-01-29T10:58:46.785Z,4.70
2023-01-29T11:01:32.438Z,4.90
2023-01-29T11:04:18.660Z,5.00
2023-01-29T11:07:07.084Z,4.80
2023-01-29T11:10:17.299Z,4.80
2023-01-29T11:13:07.472Z,4.90
2023-01-29T11:15:53.759Z,4.90
2023-01-29T11:18:51.404Z,4.90
2023-01-29T11:21:59.236Z,5.10
2023-01-29T11:24:47.598Z,5.10
2023-01-29T11:27:35.653Z,5.20
2023-01-29T11:30:26.351Z,5.10
2023-01-29T11:33:24.367Z,5.30
2023-01-29T11:36:35.165Z,5.20
2023-01-29T11:39:23.341Z,5.20
2023-01-29T11:42:22.339Z,5.20
2023-01-29T11:45:33.932Z,5.10
2023-01-29T11:48:23.519Z,5.10
2023-01-29T11:51:12.497Z,5.20
2023-01-29T11:54:02.072Z,5.40
2023-01-29T11:56:48.915Z,5.30
2023-01-29T11:59:49.980Z,5.30
2023-01-29T12:02:44.180Z,5.40
2023-01-29T12:05:31.946Z,5.50
2023-01-29T12:08:18.899Z,5.30
2023-01-29T12:11:11.225Z,5.40
2023-01-29T12:14:05.186Z,5.40
2023-01-29T12:17:03.817Z,5.60
2023-01-29T12:19:59.103Z,5.50
2023-01-29T12:22:58.059Z,5.30
2023-01-29T12:25:58.585Z,5.30
2023-01-29T12:29:21.618Z,5.40
2023-01-29T12:32:26.005Z,5.40
2023-01-29T12:35:23.166Z,5.60
2023-01-29T12:38:20.891Z,5.50
2023-01-29T12:41:11.614Z,5.30
2023-01-29T12:44:05.736Z,5.20
2023-01-29T12:46:56.679Z,5.10
2023-01-29T12:49:45.908Z,5.20
2023-01-29T12:52:46.211Z,5.00
2023-01-29T12:55:41.940Z,4.90
2023-01-29T12:58:36.554Z,4.80
2023-01-29T13:01:40.807Z,4.80
2023-01-29T13:04:45.550Z,4.60
2023-01-29T13:07:42.309Z,4.50
2023-01-29T13:10:37.250Z,4.50
2023-01-29T13:13:28.951Z,4.60
2023-01-29T13:16:15.952Z,4.60
2023-01-29T13:19:15.117Z,4.50
2023-01-29T13:22:10.904Z,4.40
2023-01-29T13:25:05.055Z,4.40
2023-01-29T13:27:54.469Z,4.50
2023-01-29T13:30:40.678Z,4.30
2023-01-29T13:33:28.638Z,4.40
2023-01-29T13:36:19.519Z,4.40
2023-01-29T13:39:19.195Z,4.30
2023-01-29T13:42:21.895Z,4.40
2023-01-29T13:45:10.126Z,4.40
2023-01-29T13:48:21.981Z,4.30
2023-01-29T13:51:17.772Z,4.30
2023-01-29T13:54:08.026Z,4.20
2023-01-29T13:56:59.245Z,4.20
2023-01-29T13:59:54.100Z,4.30
2023-01-29T14:02:39.591Z,4.20
2023-01-29T14:05:31.309Z,4.10
2023-01-29T14:08:35.151Z,4.20
2023-01-29T14:11:21.643Z,4.00
2023-01-29T14:14:45.829Z,4.10
2023-01-29T14:17:31.458Z,4.00
2023-01-29T14:20:20.800Z,3.90
2023-01-29T14:23:08.661Z,3.80
2023-01-29T14:25:56.957Z,3.80
2023-01-29T14:28:43.959Z,3.70
2023-01-29T14:31:51.881Z,3.70
2023-01-29T14:34:47.769Z,3.70
2023-01-29T14:37:36.827Z,3.60
2023-01-29T14:40:27.509Z,3.60
2023-01-29T14:43:21.048Z,3.50
2023-01-29T14:46:36.779Z,3.40
2023-01-29T14:49:51.744Z,3.40
2023-01-29T14:52:41.598Z,3.40
2023-01-29T14:56:07.869Z,3.40
2023-01-29T14:59:02.354Z,3.30
2023-01-29T15:01:58.459Z,3.40
2023-01-29T15:04:53.513Z,3.40
2023-01-29T15:08:08.584Z,3.30
2023-01-29T15:11:19.062Z,3.30
2023-01-29T15:14:29.645Z,3.20
2023-01-29T15:17:27.546Z,3.20
2023-01-29T15:20:38.188Z,3.10
2023-01-29T15:23:32.601Z,3.10
2023-01-29T15:26:27.007Z,3.00
2023-01-29T15:29:25.011Z,3.00
2023-01-29T15:32:17.669Z,3.00
2023-01-29T15:35:28.361Z,3.10
2023-01-29T15:38:21.170Z,3.10
2023-01-29T15:41:24.283Z,3.00
2023-01-29T15:44:24.439Z,3.00
2023-01-29T15:47:10.126Z,3.00
2023-01-29T15:49:57.449Z,3.00
2023-01-29T15:52:45.997Z,3.00
2023-01-29T15:55:32.534Z,3.00
2023-01-29T15:58:30.361Z,3.00
2023-01-29T16:01:16.758Z,2.90
2023-01-29T16:04:03.803Z,2.90
2023-01-29T16:06:51.905Z,2.90
2023-01-29T16:09:40.510Z,2.90
2023-01-29T16:12:26.279Z,2.80
2023-01-29T16:15:20.252Z,2.80
2023-01-29T16:18:35.169Z,2.90
2023-01-29T16:21:43.530Z,2.80
2023-01-29T16:24:31.115Z,2.80
2023-01-29T16:27:19.785Z,2.80
2023-01-29T16:30:07.192Z,2.80
2023-01-29T16:32:52.785Z,2.80
2023-01-29T16:35:38.650Z,2.80
2023-01-29T16:38:31.129Z,2.90
2023-01-29T16:41:22.892Z,2.90
2023-01-29T16:44:20.375Z,2.90
2023-01-29T16:47:13.917Z,2.90
2023-01-29T16:50:01.307Z,2.90
2023-01-29T16:53:27.369Z,2.90
2023-01-29T16:56:12.768Z,2.90
2023-01-29T16:59:01.893Z,2.90
2023-01-29T17:01:51.809Z,2.90
2023-01-29T17:04:41.926Z,2.90
2023-01-29T17:07:29.082Z,2.90
2023-01-29T17:10:23.048Z,2.90
2023-01-29T17:13:16.925Z,2.90
2023-01-29T17:16:15.399Z,2.80
2023-01-29T17:19:01.919Z,2.90
2023-01-29T17:21:48.396Z,2.80
2023-01-29T17:24:33.982Z,2.90
2023-01-29T17:27:21.591Z,2.80
2023-01-29T17:30:16.091Z,2.80
2023-01-29T17:33:02.921Z,2.90
2023-01-29T17:35:49.731Z,2.90
2023-01-29T17:38:35.510Z,2.90
2023-01-29T17:41:27.721Z,2.80
2023-01-29T17:44:13.042Z,2.80
2023-01-29T17:46:58.668Z,2.90
2023-01-29T17:49:46.697Z,2.90
2023-01-29T17:52:32.260Z,2.90
2023-01-29T17:55:20.566Z,2.80
2023-01-29T17:58:05.926Z,2.80
2023-01-29T18:00:52.683Z,2.80
2023-01-29T18:03:38.588Z,2.90
2023-01-29T18:06:29.406Z,2.80
2023-01-29T18:09:18.864Z,2.70
2023-01-29T18:12:10.267Z,2.70
2023-01-29T18:14:56.061Z,2.70
2023-01-29T18:17:42.335Z,2.70
2023-01-29T18:20:27.884Z,2.70
2023-01-29T18:23:13.612Z,2.70
2023-01-29T18:25:59.579Z,2.70
2023-01-29T18:28:45.250Z,2.70
2023-01-29T18:31:31.442Z,2.70
2023-01-29T18:34:16.929Z,2.70
2023-01-29T18:37:02.212Z,2.60
2023-01-29T18:39:47.539Z,2.60
2023-01-29T18:42:36.136Z,2.60
2023-01-29T18:45:24.499Z,2.60
2023-01-29T18:48:10.365Z,2.60
2023-01-29T18:50:55.656Z,2.60
2023-01-29T18:53:41.112Z,2.70
2023-01-29T18:56:26.304Z,2.70
2023-01-29T18:59:12.448Z,2.60
2023-01-29T19:01:58.125Z,2.70
2023-01-29T19:04:43.561Z,2.70
2023-01-29T19:07:29.035Z,2.70
2023-01-29T19:10:17.008Z,2.70
2023-01-29T19:13:02.606Z,2.70
2023-01-29T19:15:50.360Z,2.60
2023-01-29T19:18:35.882Z,2.70
2023-01-29T19:21:21.779Z,2.70
2023-01-29T19:24:10.623Z,2.60
2023-01-29T19:26:55.890Z,2.70
2023-01-29T19:29:43.839Z,2.70
2023-01-29T19:32:30.140Z,2.70
2023-01-29T19:35:16.047Z,2.60
2023-01-29T19:38:01.877Z,2.60
2023-01-29T19:40:51.315Z,2.60
2023-01-29T19:43:41.953Z,2.60
2023-01-29T19:46:29.038Z,2.60
2023-01-29T19:49:20.744Z,2.60
2023-01-29T19:52:14.928Z,2.60
2023-01-29T19:55:07.203Z,2.70
2023-01-29T19:57:57.043Z,2.70
2023-01-29T20:00:44.953Z,2.70
2023-01-29T20:03:30.893Z,2.70
2023-01-29T20:06:19.368Z,2.70
2023-01-29T20:09:08.575Z,2.80
2023-01-29T20:11:56.039Z,2.70
2023-01-29T20:14:48.569Z,2.70
2023-01-29T20:17:34.279Z,2.70
2023-01-29T20:20:22.190Z,2.70
2023-01-29T20:23:15.539Z,2.70
2023-01-29T20:26:03.467Z,2.70
2023-01-29T20:28:49.135Z,2.70
2023-01-29T20:31:37.382Z,2.80
2023-01-29T20:34:24.031Z,2.70
2023-01-29T20:37:09.582Z,2.60
2023-01-29T20:39:57.543Z,2.60
2023-01-29T20:42:45.356Z,2.60
2023-01-29T20:45:33.476Z,2.60
2023-01-29T20:48:19.564Z,2.60
2023-01-29T20:51:08.168Z,2.60
2023-01-29T20:53:55.601Z,2.60
2023-01-29T20:56:47.819Z,2.50
2023-01-29T20:59:34.014Z,2.50
2023-01-29T21:02:19.863Z,2.50
2023-01-29T21:05:06.571Z,2.60
2023-01-29T21:07:54.184Z,2.60
2023-01-29T21:10:41.003Z,2.60
2023-01-29T21:13:27.796Z,2.60
2023-01-29T21:16:14.290Z,2.60
2023-01-29T21:19:00.430Z,2.60
2023-01-29T21:21:45.997Z,2.60
2023-01-29T21:24:31.585Z,2.60
2023-01-29T21:27:17.009Z,2.60
2023-01-29T21:30:10.297Z,2.60
2023-01-29T21:32:55.689Z,2.60
2023-01-29T21:35:46.212Z,2.60
2023-01-29T21:38:31.547Z,2.60
2023-01-29T21:41:19.200Z,2.60
2023-01-29T21:44:04.811Z,2.60
2023-01-29T21:46:50.396Z,2.60
2023-01-29T21:49:35.836Z,2.60
2023-01-29T21:52:21.605Z,2.50
2023-01-29T21:55:12.253Z,2.50
2023-01-29T21:57:58.743Z,2.50
2023-01-29T22:00:48.656Z,2.60
2023-01-29T22:03:34.358Z,2.60
2023-01-29T22:06:20.145Z,2.50
2023-01-29T22:09:05.755Z,2.50
2023-01-29T22:11:55.272Z,2.50
2023-01-29T22:14:41.994Z,2.50
2023-01-29T22:17:28.464Z,2.50
2023-01-29T22:20:14.732Z,2.50
2023-01-29T22:23:00.845Z,2.50
2023-01-29T22:25:48.876Z,2.50
2023-01-29T22:28:34.165Z,2.50
2023-01-29T22:31:19.936Z,2.40
2023-01-29T22:34:05.712Z,2.50
2023-01-29T22:36:53.861Z,2.50
2023-01-29T22:39:39.384Z,2.50
2023-01-29T22:42:24.684Z,2.50
2023-01-29T22:45:11.168Z,2.50
2023-01-29T22:48:00.023Z,2.40
2023-01-29T22:50:53.879Z,2.40
2023-01-29T22:53:44.194Z,2.40
2023-01-29T22:56:30.680Z,2.50
2023-01-29T22:59:16.004Z,2.40
2023-01-29T23:02:01.369Z,2.50
2023-01-29T23:04:49.427Z,2.50
2023-01-29T23:07:34.952Z,2.50
2023-01-29T23:10:20.524Z,2.50
2023-01-29T23:13:09.562Z,2.40
2023-01-29T23:15:59.643Z,2.40
2023-01-29T23:18:50.182Z,2.50
2023-01-29T23:21:35.590Z,2.50
2023-01-29T23:24:21.177Z,2.50
2023-01-29T23:27:16.001Z,2.40
2023-01-29T23:30:01.916Z,2.40
2023-01-29T23:32:47.747Z,2.40
2023-01-29T23:35:33.216Z,2.40
2023-01-29T23:38:21.402Z,2.40
2023-01-29T23:41:06.696Z,2.40
2023-01-29T23:43:55.490Z,2.40
2023-01-29T23:46:48.728Z,2.40
2023-01-29T23:49:34.869Z,2.50
2023-01-29T23:52:20.481Z,2.50
2023-01-29T23:55:06.519Z,2.50
2023-01-29T23:57:51.847Z,2.60
